Time;durP1;ratioP1;P1;durP2;ratioP2;P2;SDS_P1;SDS_P2;PMS_P1;PMS_P2;Temp;Humidity;BMP_temperature;BMP_pressure;BME280_temperature;BME280_humidity;BME280_pressure;Samples;Min_cycle;Max_cycle;Signal;HPM_P1;HPM_P2
2022/04/23 00:00:20;;;;;;;16.90;10.40;;;;;;;;;;4944875;29;20127;-79
2022/04/23 00:02:45;;;;;;;15.90;10.25;;;;;;;;;;4937773;29;20032;-80
2022/04/23 00:05:10;;;;;;;18.92;10.02;;;;;;;;;;4951829;29;20075;-80
2022/04/23 00:07:36;;;;;;;18.23;10.10;;;;;;;;;;4954882;29;20024;-80
2022/04/23 00:10:01;;;;;;;16.75;10.00;;;;;;;;;;4951044;29;20034;-79
2022/04/23 00:12:26;;;;;;;16.13;10.25;;;;;;;;;;4954721;29;20155;-80
2022/04/23 00:14:53;;;;;;;14.93;10.27;;;;;;;;;;4949277;29;20026;-81
2022/04/23 00:17:18;;;;;;;18.65;10.63;;;;;;;;;;4946279;29;20100;-80
2022/04/23 00:19:47;;;;;;;18.15;9.68;;;;;;;;;;4934647;29;20024;-80
2022/04/23 00:22:13;;;;;;;17.20;9.60;;;;;;;;;;4945230;29;20035;-81
2022/04/23 00:24:38;;;;;;;15.38;9.80;;;;;;;;;;4936357;29;20044;-80
2022/04/23 00:27:03;;;;;;;16.35;9.68;;;;;;;;;;4936119;29;20059;-80
2022/04/23 00:29:29;;;;;;;18.65;10.10;;;;;;;;;;4934867;29;20016;-80
2022/04/23 00:31:57;;;;;;;16.40;9.90;;;;;;;;;;4935200;29;20016;-80
2022/04/23 00:34:22;;;;;;;15.80;9.35;;;;;;;;;;4942356;29;20075;-80
2022/04/23 00:36:48;;;;;;;16.92;9.82;;;;;;;;;;4941335;29;20027;-80
2022/04/23 00:39:13;;;;;;;14.65;9.02;;;;;;;;;;4945169;29;20024;-79
2022/04/23 00:41:48;;;;;;;18.00;9.68;;;;;;;;;;4950840;29;20456;-81
2022/04/23 00:44:14;;;;;;;15.10;9.30;;;;;;;;;;4939350;29;20457;-80
2022/04/23 00:46:39;;;;;;;15.80;9.18;;;;;;;;;;4936409;29;20050;-80
2022/04/23 00:49:06;;;;;;;17.10;10.18;;;;;;;;;;4921000;29;20031;-80
2022/04/23 00:51:31;;;;;;;16.23;9.05;;;;;;;;;;4941295;29;20089;-81
2022/04/23 00:54:09;;;;;;;18.67;9.85;;;;;;;;;;4937669;29;20016;-81
2022/04/23 00:56:38;;;;;;;18.75;8.65;;;;;;;;;;4935730;29;20024;-79
2022/04/23 00:59:06;;;;;;;15.73;9.52;;;;;;;;;;4935109;29;20103;-80
2022/04/23 01:01:31;;;;;;;18.88;9.70;;;;;;;;;;4936224;29;20023;-80
2022/04/23 01:03:57;;;;;;;15.35;8.88;;;;;;;;;;4937716;29;20082;-80
2022/04/23 01:06:23;;;;;;;15.13;9.05;;;;;;;;;;4919147;29;20291;-80
2022/04/23 01:08:49;;;;;;;13.45;8.20;;;;;;;;;;4938233;29;20024;-81
2022/04/23 01:11:14;;;;;;;15.82;8.70;;;;;;;;;;4919103;29;20026;-80
2022/04/23 01:13:43;;;;;;;14.63;8.57;;;;;;;;;;4943836;29;20063;-81
2022/04/23 01:16:08;;;;;;;16.40;9.57;;;;;;;;;;4948973;29;20023;-79
2022/04/23 01:18:36;;;;;;;17.48;9.27;;;;;;;;;;4947747;29;20078;-80
2022/04/23 01:21:02;;;;;;;13.53;7.83;;;;;;;;;;4945830;29;20027;-82
2022/04/23 01:23:29;;;;;;;14.63;8.27;;;;;;;;;;4933339;29;20016;-81
2022/04/23 01:25:54;;;;;;;14.65;8.05;;;;;;;;;;4930695;29;20023;-80
2022/04/23 01:28:23;;;;;;;14.40;8.48;;;;;;;;;;4941105;29;20490;-81
2022/04/23 01:30:49;;;;;;;17.35;8.52;;;;;;;;;;4934780;29;20027;-80
2022/04/23 01:33:15;;;;;;;16.33;7.85;;;;;;;;;;4934884;29;20391;-80
2022/04/23 01:35:40;;;;;;;12.65;7.75;;;;;;;;;;4933855;29;20462;-81
2022/04/23 01:38:05;;;;;;;13.30;7.30;;;;;;;;;;4935977;29;20039;-79
2022/04/23 01:40:30;;;;;;;17.08;8.05;;;;;;;;;;4938617;29;20245;-81
2022/04/23 01:42:56;;;;;;;14.88;7.65;;;;;;;;;;4934838;29;20046;-80
2022/04/23 01:45:21;;;;;;;13.43;7.88;;;;;;;;;;4935083;29;20023;-80
2022/04/23 01:47:46;;;;;;;14.20;7.63;;;;;;;;;;4918187;29;20012;-80
2022/04/23 01:50:11;;;;;;;14.88;7.25;;;;;;;;;;4935278;29;20506;-80
2022/04/23 01:52:36;;;;;;;12.80;7.90;;;;;;;;;;4921184;29;20043;-80
2022/04/23 01:55:02;;;;;;;13.98;7.28;;;;;;;;;;4935124;29;20031;-79
2022/04/23 01:57:27;;;;;;;14.80;7.65;;;;;;;;;;4919589;29;20266;-80
2022/04/23 01:59:52;;;;;;;14.10;7.22;;;;;;;;;;4934667;29;20027;-78
2022/04/23 02:02:17;;;;;;;15.95;7.18;;;;;;;;;;4918413;29;20027;-80
2022/04/23 02:04:43;;;;;;;12.23;6.85;;;;;;;;;;4934678;29;20020;-80
2022/04/23 02:07:08;;;;;;;10.80;6.60;;;;;;;;;;4917530;29;20313;-80
2022/04/23 02:09:33;;;;;;;11.05;7.13;;;;;;;;;;4934473;29;20384;-80
2022/04/23 02:11:58;;;;;;;13.15;6.88;;;;;;;;;;4934425;29;20250;-80
2022/04/23 02:14:23;;;;;;;12.50;7.10;;;;;;;;;;4933440;29;20023;-81
2022/04/23 02:16:49;;;;;;;13.93;7.38;;;;;;;;;;4934461;29;20411;-80
2022/04/23 02:19:14;;;;;;;12.38;7.13;;;;;;;;;;4934976;29;20019;-81
2022/04/23 02:21:39;;;;;;;13.20;7.38;;;;;;;;;;4934260;29;20016;-81
2022/04/23 02:24:08;;;;;;;14.65;7.93;;;;;;;;;;4916872;29;20475;-80
2022/04/23 02:26:33;;;;;;;11.60;7.07;;;;;;;;;;4934572;29;20475;-80
2022/04/23 02:29:05;;;;;;;11.50;6.75;;;;;;;;;;4937523;29;20028;-81
2022/04/23 02:31:30;;;;;;;12.27;7.32;;;;;;;;;;4936712;29;20142;-81
2022/04/23 02:33:57;;;;;;;11.63;7.72;;;;;;;;;;4937130;29;20043;-80
2022/04/23 02:36:22;;;;;;;12.73;7.35;;;;;;;;;;4920372;29;20031;-80
2022/04/23 02:38:51;;;;;;;11.85;6.90;;;;;;;;;;4938458;29;20542;-81
2022/04/23 02:41:16;;;;;;;12.07;7.40;;;;;;;;;;4920390;29;20094;-80
2022/04/23 02:43:42;;;;;;;10.88;7.00;;;;;;;;;;4937356;29;20074;-81
2022/04/23 02:46:08;;;;;;;12.02;7.30;;;;;;;;;;4920335;29;20016;-81
2022/04/23 02:48:55;;;;;;;13.00;6.97;;;;;;;;;;4919072;29;20111;-81
2022/04/23 02:51:21;;;;;;;12.95;7.70;;;;;;;;;;4920656;29;20019;-85
2022/04/23 02:53:46;;;;;;;10.30;6.65;;;;;;;;;;4920516;29;20020;-80
2022/04/23 02:56:13;;;;;;;11.85;6.68;;;;;;;;;;4938079;29;20035;-82
2022/04/23 02:58:41;;;;;;;13.10;7.05;;;;;;;;;;4938242;29;20486;-82
2022/04/23 03:01:10;;;;;;;10.55;6.70;;;;;;;;;;4921450;29;20028;-81
2022/04/23 03:03:40;;;;;;;13.13;7.85;;;;;;;;;;4937814;29;20032;-80
2022/04/23 03:06:07;;;;;;;15.90;9.10;;;;;;;;;;4926519;29;20028;-81
2022/04/23 03:08:32;;;;;;;12.05;7.38;;;;;;;;;;4938411;29;20024;-81
2022/04/23 03:10:57;;;;;;;13.38;7.32;;;;;;;;;;4938907;29;20030;-82
2022/04/23 03:13:24;;;;;;;12.38;6.93;;;;;;;;;;4936920;29;20016;-81
2022/04/23 03:15:49;;;;;;;10.95;6.72;;;;;;;;;;4937587;29;20044;-80
2022/04/23 03:18:14;;;;;;;12.23;7.20;;;;;;;;;;4920290;29;20106;-81
2022/04/23 03:20:43;;;;;;;13.13;7.15;;;;;;;;;;4936620;29;20020;-81
2022/04/23 03:23:09;;;;;;;11.07;6.68;;;;;;;;;;4937012;29;20114;-81
2022/04/23 03:25:34;;;;;;;13.05;7.40;;;;;;;;;;4922269;29;20161;-84
2022/04/23 03:28:00;;;;;;;12.25;7.47;;;;;;;;;;4938563;29;20504;-83
2022/04/23 03:30:25;;;;;;;11.07;6.68;;;;;;;;;;4939218;29;20071;-82
2022/04/23 03:32:51;;;;;;;12.10;7.70;;;;;;;;;;4942414;29;20024;-80
2022/04/23 03:35:16;;;;;;;12.07;7.20;;;;;;;;;;4945119;29;20024;-80
2022/04/23 03:37:41;;;;;;;12.55;7.68;;;;;;;;;;4950086;29;20391;-81
2022/04/23 03:40:07;;;;;;;11.77;6.88;;;;;;;;;;4946139;29;20079;-81
2022/04/23 03:42:33;;;;;;;12.98;7.13;;;;;;;;;;4947331;29;20037;-84
2022/04/23 03:44:58;;;;;;;13.25;7.55;;;;;;;;;;4948645;29;20525;-83
2022/04/23 03:47:23;;;;;;;10.52;7.00;;;;;;;;;;4951173;29;20083;-81
2022/04/23 03:49:48;;;;;;;12.05;7.22;;;;;;;;;;4955020;29;20008;-81
2022/04/23 03:52:14;;;;;;;12.80;7.65;;;;;;;;;;4952582;29;20015;-80
2022/04/23 03:54:39;;;;;;;12.57;7.32;;;;;;;;;;4947103;29;20129;-80
2022/04/23 03:57:04;;;;;;;14.18;7.72;;;;;;;;;;4946877;29;20455;-78
2022/04/23 03:59:30;;;;;;;15.13;7.57;;;;;;;;;;4951438;29;20020;-81
2022/04/23 04:01:55;;;;;;;13.30;8.15;;;;;;;;;;4950169;29;20027;-80
2022/04/23 04:04:21;;;;;;;18.40;8.35;;;;;;;;;;4948528;29;20030;-80
2022/04/23 04:06:46;;;;;;;13.00;8.13;;;;;;;;;;4947879;29;20032;-81
2022/04/23 04:09:12;;;;;;;12.68;8.02;;;;;;;;;;4945051;29;20020;-79
2022/04/23 04:14:21;;;;;;;17.17;8.77;;;;;;;;;;4947337;29;20045;-79
2022/04/23 04:16:47;;;;;;;13.13;7.65;;;;;;;;;;4953266;29;20043;-80
2022/04/23 04:19:15;;;;;;;15.90;7.53;;;;;;;;;;4945253;29;20027;-80
2022/04/23 04:21:42;;;;;;;13.63;7.40;;;;;;;;;;4919426;29;20099;-81
2022/04/23 04:24:08;;;;;;;14.35;8.07;;;;;;;;;;4935601;29;20063;-80
2022/04/23 04:26:33;;;;;;;14.38;7.72;;;;;;;;;;4935231;29;20028;-79
2022/04/23 04:28:58;;;;;;;13.43;7.90;;;;;;;;;;4934976;29;20019;-82
2022/04/23 04:34:13;;;;;;;13.27;8.07;;;;;;;;;;4937113;29;20448;-81
2022/04/23 04:36:38;;;;;;;13.50;8.80;;;;;;;;;;4935531;29;20020;-81
2022/04/23 04:39:07;;;;;;;14.35;8.05;;;;;;;;;;4935122;29;20023;-81
2022/04/23 04:41:35;;;;;;;14.23;8.25;;;;;;;;;;4919115;29;20024;-80
2022/04/23 04:44:00;;;;;;;14.38;8.05;;;;;;;;;;4917265;29;20507;-81
2022/04/23 04:46:31;;;;;;;12.88;8.52;;;;;;;;;;4936469;29;20012;-79
2022/04/23 04:48:56;;;;;;;14.35;8.63;;;;;;;;;;4917548;29;20506;-81
2022/04/23 04:51:21;;;;;;;14.27;8.23;;;;;;;;;;4934864;29;20043;-80
2022/04/23 04:53:47;;;;;;;13.88;8.15;;;;;;;;;;4917559;29;20027;-80
2022/04/23 04:56:12;;;;;;;14.60;8.40;;;;;;;;;;4935493;29;20479;-81
2022/04/23 04:58:37;;;;;;;16.60;8.88;;;;;;;;;;4934003;29;20050;-80
2022/04/23 05:01:03;;;;;;;15.40;8.52;;;;;;;;;;4928343;29;20483;-81
2022/04/23 05:03:28;;;;;;;14.40;8.57;;;;;;;;;;4934862;29;20023;-81
2022/04/23 05:06:00;;;;;;;11.48;8.10;;;;;;;;;;4935191;29;20012;-80
2022/04/23 05:08:25;;;;;;;12.23;8.02;;;;;;;;;;4935513;29;20015;-79
2022/04/23 05:10:50;;;;;;;15.32;8.73;;;;;;;;;;4934657;29;20483;-81
2022/04/23 05:13:15;;;;;;;12.88;8.00;;;;;;;;;;4934556;29;20593;-80
2022/04/23 05:15:40;;;;;;;16.83;8.57;;;;;;;;;;4934247;29;20059;-81
2022/04/23 05:18:06;;;;;;;13.63;8.32;;;;;;;;;;4938160;29;20115;-81
2022/04/23 05:20:31;;;;;;;15.57;8.77;;;;;;;;;;4934459;29;20506;-82
2022/04/23 05:22:56;;;;;;;15.70;9.25;;;;;;;;;;4934520;29;20023;-80
2022/04/23 05:25:21;;;;;;;16.27;9.18;;;;;;;;;;4934923;29;20091;-80
2022/04/23 05:27:47;;;;;;;15.13;7.93;;;;;;;;;;4935179;29;20483;-80
2022/04/23 05:30:12;;;;;;;15.32;8.70;;;;;;;;;;4933813;29;20028;-80
2022/04/23 05:32:37;;;;;;;17.83;8.60;;;;;;;;;;4934130;29;20096;-81
2022/04/23 05:35:02;;;;;;;18.75;9.20;;;;;;;;;;4934995;29;20112;-81
2022/04/23 05:37:27;;;;;;;13.80;8.23;;;;;;;;;;4934576;29;20012;-80
2022/04/23 05:39:53;;;;;;;13.73;8.88;;;;;;;;;;4935135;29;20431;-80
2022/04/23 05:42:18;;;;;;;15.07;9.30;;;;;;;;;;4917775;29;20031;-81
2022/04/23 05:44:43;;;;;;;14.38;8.90;;;;;;;;;;4934957;29;20063;-81
2022/04/23 05:47:08;;;;;;;14.73;8.52;;;;;;;;;;4933848;29;20111;-80
2022/04/23 05:49:37;;;;;;;12.10;8.38;;;;;;;;;;4916783;29;20034;-80
2022/04/23 05:52:02;;;;;;;14.75;8.82;;;;;;;;;;4936002;29;20158;-80
2022/04/23 05:54:27;;;;;;;15.77;8.95;;;;;;;;;;4934449;29;20509;-80
2022/04/23 05:56:52;;;;;;;16.85;9.57;;;;;;;;;;4918074;29;20027;-80
2022/04/23 05:59:17;;;;;;;14.90;8.05;;;;;;;;;;4934588;29;20020;-80
2022/04/23 06:01:43;;;;;;;12.05;8.55;;;;;;;;;;4935699;29;20467;-80
2022/04/23 06:04:08;;;;;;;14.07;8.35;;;;;;;;;;4939517;29;20043;-81
2022/04/23 06:06:33;;;;;;;18.17;8.20;;;;;;;;;;4937393;29;20103;-80
2022/04/23 06:08:58;;;;;;;19.25;9.18;;;;;;;;;;4938634;29;20388;-80
2022/04/23 06:11:24;;;;;;;14.38;7.97;;;;;;;;;;4926793;29;20035;-79
2022/04/23 06:13:49;;;;;;;15.13;7.65;;;;;;;;;;4923783;29;20497;-80
2022/04/23 06:16:14;;;;;;;14.07;8.50;;;;;;;;;;4940740;29;20027;-79
2022/04/23 06:18:39;;;;;;;13.02;7.25;;;;;;;;;;4932683;29;20510;-81
2022/04/23 06:21:04;;;;;;;11.52;7.95;;;;;;;;;;4938839;29;20028;-82
2022/04/23 06:23:30;;;;;;;12.43;7.60;;;;;;;;;;4939332;29;20026;-80
2022/04/23 06:25:55;;;;;;;11.45;7.13;;;;;;;;;;4927304;29;20399;-80
2022/04/23 06:28:20;;;;;;;14.48;8.00;;;;;;;;;;4931066;29;20364;-81
2022/04/23 06:30:45;;;;;;;14.98;8.10;;;;;;;;;;4921248;29;20383;-82
2022/04/23 06:33:11;;;;;;;13.43;6.97;;;;;;;;;;4939088;29;20028;-81
2022/04/23 06:35:36;;;;;;;12.18;7.13;;;;;;;;;;4940117;29;20015;-81
2022/04/23 06:38:01;;;;;;;10.27;6.50;;;;;;;;;;4938408;29;20031;-81
2022/04/23 06:40:29;;;;;;;10.10;6.35;;;;;;;;;;4941606;29;20015;-80
2022/04/23 06:42:55;;;;;;;10.77;6.55;;;;;;;;;;4941985;29;20031;-80
2022/04/23 06:45:20;;;;;;;12.20;6.90;;;;;;;;;;4940180;29;20024;-80
2022/04/23 06:47:48;;;;;;;10.38;6.32;;;;;;;;;;4939959;29;20027;-80
2022/04/23 06:50:13;;;;;;;12.38;7.00;;;;;;;;;;4928706;29;20035;-80
2022/04/23 06:52:38;;;;;;;11.77;6.85;;;;;;;;;;4922547;29;20395;-81
2022/04/23 06:55:04;;;;;;;13.45;5.90;;;;;;;;;;4939417;29;20036;-81
2022/04/23 06:57:29;;;;;;;8.93;6.10;;;;;;;;;;4941396;29;20063;-81
2022/04/23 07:00:04;;;;;;;11.48;6.10;;;;;;;;;;4934172;29;20475;-81
2022/04/23 07:02:29;;;;;;;10.82;5.85;;;;;;;;;;4941041;29;20024;-83
2022/04/23 07:04:54;;;;;;;10.35;5.68;;;;;;;;;;4940520;29;20112;-81
2022/04/23 07:07:20;;;;;;;8.93;5.95;;;;;;;;;;4940998;29;20015;-82
2022/04/23 07:09:48;;;;;;;9.18;5.55;;;;;;;;;;4938212;29;20392;-80
2022/04/23 07:12:14;;;;;;;9.73;5.20;;;;;;;;;;4936996;29;20395;-82
2022/04/23 07:14:40;;;;;;;8.90;4.80;;;;;;;;;;4945212;29;20028;-81
2022/04/23 07:17:05;;;;;;;7.78;4.70;;;;;;;;;;4937994;29;20095;-82
2022/04/23 07:19:32;;;;;;;7.40;4.72;;;;;;;;;;4939673;29;20478;-81
2022/04/23 07:21:57;;;;;;;9.90;5.03;;;;;;;;;;4920979;29;20024;-81
2022/04/23 07:24:22;;;;;;;8.55;4.78;;;;;;;;;;4937487;29;20047;-82
2022/04/23 07:26:48;;;;;;;9.43;4.80;;;;;;;;;;4937736;29;20111;-82
2022/04/23 07:29:13;;;;;;;7.20;4.38;;;;;;;;;;4919966;29;20032;-81
2022/04/23 07:31:38;;;;;;;7.82;4.97;;;;;;;;;;4920547;29;20012;-81
2022/04/23 07:39:32;;;;;;;9.38;5.53;;;;;;;;;;4923161;29;20027;-80
2022/04/23 07:42:00;;;;;;;8.95;5.72;;;;;;;;;;4937394;29;20024;-81
2022/04/23 07:44:25;;;;;;;10.95;5.97;;;;;;;;;;4935957;29;20035;-80
2022/04/23 07:46:51;;;;;;;10.02;5.97;;;;;;;;;;4925960;29;20016;-80
2022/04/23 07:49:16;;;;;;;10.55;6.60;;;;;;;;;;4936420;29;20034;-81
2022/04/23 07:51:42;;;;;;;8.88;5.03;;;;;;;;;;4937261;29;20125;-81
2022/04/23 07:54:07;;;;;;;8.88;5.53;;;;;;;;;;4936604;29;20028;-80
2022/04/23 07:56:33;;;;;;;9.93;4.97;;;;;;;;;;4919682;29;20423;-80
2022/04/23 07:58:58;;;;;;;8.07;5.22;;;;;;;;;;4936484;29;20028;-81
2022/04/23 08:01:23;;;;;;;8.00;4.68;;;;;;;;;;4937188;29;20078;-80
2022/04/23 08:03:49;;;;;;;8.48;4.90;;;;;;;;;;4937215;29;20034;-80
2022/04/23 08:06:14;;;;;;;7.95;4.45;;;;;;;;;;4937832;29;20456;-82
2022/04/23 08:08:39;;;;;;;8.50;4.55;;;;;;;;;;4939705;29;20024;-80
2022/04/23 08:11:06;;;;;;;6.82;4.15;;;;;;;;;;4936108;29;20031;-80
2022/04/23 08:13:32;;;;;;;7.75;4.15;;;;;;;;;;4918437;29;20023;-81
2022/04/23 08:15:59;;;;;;;7.38;4.60;;;;;;;;;;4934865;29;20022;-82
2022/04/23 08:18:24;;;;;;;8.93;3.85;;;;;;;;;;4937428;29;20023;-80
2022/04/23 08:20:49;;;;;;;7.75;4.28;;;;;;;;;;4936430;29;20415;-82
2022/04/23 08:23:16;;;;;;;7.95;5.20;;;;;;;;;;4935644;29;20071;-81
2022/04/23 08:25:41;;;;;;;7.35;4.55;;;;;;;;;;4920633;29;20026;-81
2022/04/23 08:30:50;;;;;;;10.20;4.53;;;;;;;;;;4934448;29;21036;-81
2022/04/23 08:33:15;;;;;;;6.97;4.30;;;;;;;;;;4934749;29;20024;-81
2022/04/23 08:35:40;;;;;;;9.48;5.15;;;;;;;;;;4935205;29;20095;-81
2022/04/23 08:38:16;;;;;;;7.30;4.50;;;;;;;;;;4934855;29;20083;-80
2022/04/23 08:40:45;;;;;;;7.32;4.80;;;;;;;;;;4935450;29;20046;-81
2022/04/23 08:43:11;;;;;;;6.70;4.25;;;;;;;;;;4934745;29;20031;-80
2022/04/23 08:45:46;;;;;;;10.85;4.60;;;;;;;;;;4920443;29;20024;-80
2022/04/23 08:48:12;;;;;;;10.30;4.93;;;;;;;;;;4916806;29;20028;-80
2022/04/23 08:50:37;;;;;;;9.95;4.50;;;;;;;;;;4917977;29;20086;-80
2022/04/23 08:53:23;;;;;;;9.35;5.13;;;;;;;;;;4935533;29;20023;-80
2022/04/23 08:55:48;;;;;;;7.45;4.68;;;;;;;;;;4934981;29;20093;-79
2022/04/23 08:58:15;;;;;;;7.60;4.80;;;;;;;;;;4924812;29;20024;-80
2022/04/23 09:00:40;;;;;;;8.05;4.85;;;;;;;;;;4918227;29;20040;-79
2022/04/23 09:03:05;;;;;;;7.80;4.88;;;;;;;;;;4934446;29;20151;-82
2022/04/23 09:05:31;;;;;;;8.60;5.18;;;;;;;;;;4924332;29;20020;-79
2022/04/23 09:08:05;;;;;;;8.23;4.90;;;;;;;;;;4935505;29;20020;-79
2022/04/23 09:10:44;;;;;;;9.13;4.68;;;;;;;;;;4918807;29;20034;-79
2022/04/23 09:13:10;;;;;;;9.23;5.05;;;;;;;;;;4935349;29;20024;-78
2022/04/23 09:24:32;;;;;;;8.32;5.00;;;;;;;;;;4935028;29;20455;-79
2022/04/23 09:27:05;;;;;;;8.88;4.85;;;;;;;;;;4880371;29;20041;-80
2022/04/23 09:29:30;;;;;;;10.68;4.93;;;;;;;;;;4877610;29;20028;-80
2022/04/23 09:32:13;;;;;;;7.13;4.22;;;;;;;;;;4877805;29;20541;-82
2022/04/23 09:34:38;;;;;;;6.40;4.22;;;;;;;;;;4876324;29;20033;-81
2022/04/23 09:37:05;;;;;;;7.72;4.75;;;;;;;;;;4878873;29;20025;-81
2022/04/23 09:39:31;;;;;;;6.60;4.57;;;;;;;;;;4865269;29;20033;-80
2022/04/23 09:42:14;;;;;;;8.18;4.53;;;;;;;;;;4865476;29;20592;-81
2022/04/23 09:44:44;;;;;;;6.70;3.85;;;;;;;;;;4880791;29;20037;-81
2022/04/23 09:47:30;;;;;;;11.45;3.75;;;;;;;;;;4880474;29;20017;-80
2022/04/23 09:49:55;;;;;;;7.90;3.83;;;;;;;;;;4884261;29;20028;-80
2022/04/23 09:52:26;;;;;;;5.80;3.50;;;;;;;;;;4878564;29;20029;-79
2022/04/23 09:54:55;;;;;;;11.18;3.70;;;;;;;;;;4872244;29;20037;-82
2022/04/23 09:57:22;;;;;;;7.13;3.13;;;;;;;;;;4886349;29;20038;-79
2022/04/23 09:59:50;;;;;;;6.05;3.10;;;;;;;;;;4937742;29;20475;-80
2022/04/23 10:02:20;;;;;;;7.47;4.18;;;;;;;;;;4938647;29;20082;-78
2022/04/23 10:04:45;;;;;;;6.85;3.20;;;;;;;;;;4921046;29;20406;-79
2022/04/23 10:07:11;;;;;;;4.93;3.10;;;;;;;;;;4938774;29;20094;-80
2022/04/23 10:09:39;;;;;;;5.95;2.80;;;;;;;;;;4936764;29;20379;-81
2022/04/23 10:12:08;;;;;;;6.28;3.05;;;;;;;;;;4944724;29;20087;-78
2022/04/23 10:14:41;;;;;;;6.55;3.13;;;;;;;;;;4938033;29;20027;-79
2022/04/23 10:17:09;;;;;;;7.85;3.17;;;;;;;;;;4939460;29;20020;-80
2022/04/23 10:19:34;;;;;;;5.22;3.00;;;;;;;;;;4925490;29;20030;-79
2022/04/23 10:22:21;;;;;;;5.57;3.05;;;;;;;;;;4940621;29;20024;-79
2022/04/23 10:24:52;;;;;;;3.83;2.40;;;;;;;;;;4941106;29;20024;-80
2022/04/23 10:27:18;;;;;;;6.40;2.85;;;;;;;;;;4940693;29;20094;-80
2022/04/23 10:29:44;;;;;;;5.07;2.90;;;;;;;;;;4939426;29;20023;-79
2022/04/23 10:32:12;;;;;;;12.38;3.92;;;;;;;;;;4940509;29;20016;-80
2022/04/23 10:34:38;;;;;;;;;;;;;;;;;;4923211;29;20094;-80
2022/04/23 10:37:16;;;;;;;4.43;3.00;;;;;;;;;;4939404;29;20323;-79
2022/04/23 10:39:46;;;;;;;7.03;2.85;;;;;;;;;;4938217;29;20047;-79
2022/04/23 10:42:14;;;;;;;5.32;2.83;;;;;;;;;;4924041;29;20096;-79
2022/04/23 10:44:40;;;;;;;5.50;2.95;;;;;;;;;;4937642;29;20028;-77
2022/04/23 10:47:12;;;;;;;5.45;2.70;;;;;;;;;;4937483;29;20063;-79
2022/04/23 10:49:37;;;;;;;4.63;2.80;;;;;;;;;;4922174;29;20020;-77
2022/04/23 10:52:03;;;;;;;6.13;2.70;;;;;;;;;;4937061;29;20012;-75
2022/04/23 10:54:40;;;;;;;7.43;2.80;;;;;;;;;;4937303;29;20614;-78
2022/04/23 10:57:06;;;;;;;6.78;3.53;;;;;;;;;;4922084;29;20028;-78
2022/04/23 10:59:43;;;;;;;7.38;2.95;;;;;;;;;;4938918;29;20043;-80
2022/04/23 11:02:13;;;;;;;6.38;2.65;;;;;;;;;;4940677;29;20046;-79
2022/04/23 11:12:14;;;;;;;5.90;2.95;;;;;;;;;;4933008;29;20031;-80
2022/04/23 11:13:27;;;;;;;7.80;4.05;;;;;;;;;;4937131;29;20153;-78
2022/04/23 11:16:05;;;;;;;9.63;5.53;;;;;;;;;;4924208;29;20024;-78
2022/04/23 11:18:32;;;;;;;12.63;6.07;;;;;;;;;;4938123;29;20032;-78
2022/04/23 11:21:04;;;;;;;15.60;6.82;;;;;;;;;;4920579;29;20027;-77
2022/04/23 11:23:31;;;;;;;7.00;3.65;;;;;;;;;;4938664;29;20028;-83
2022/04/23 11:25:56;;;;;;;6.95;3.67;;;;;;;;;;4940773;29;20075;-82
2022/04/23 11:28:23;;;;;;;5.88;3.25;;;;;;;;;;4931909;29;20027;-81
2022/04/23 11:30:50;;;;;;;5.18;2.92;;;;;;;;;;4939077;29;20480;-82
2022/04/23 11:33:16;;;;;;;7.53;3.50;;;;;;;;;;4938240;29;20433;-82
2022/04/23 11:35:42;;;;;;;5.30;3.35;;;;;;;;;;4940311;29;20016;-82
2022/04/23 11:38:16;;;;;;;7.75;3.38;;;;;;;;;;4923893;29;20046;-82
2022/04/23 11:40:42;;;;;;;14.55;4.03;;;;;;;;;;4944330;29;20028;-82
2022/04/23 11:43:07;;;;;;;5.53;3.40;;;;;;;;;;4946955;29;20035;-82
2022/04/23 11:45:47;;;;;;;5.03;2.80;;;;;;;;;;4951152;29;20100;-84
2022/04/23 11:48:12;;;;;;;5.72;3.28;;;;;;;;;;4949410;29;20346;-83
2022/04/23 11:50:37;;;;;;;6.43;2.83;;;;;;;;;;4952248;29;20146;-83
2022/04/23 11:53:03;;;;;;;4.65;2.78;;;;;;;;;;4930944;29;20020;-83
2022/04/23 11:55:30;;;;;;;5.00;2.53;;;;;;;;;;4946393;29;20034;-81
2022/04/23 11:58:04;;;;;;;6.95;3.90;;;;;;;;;;4940369;29;20511;-82
2022/04/23 12:00:32;;;;;;;8.63;2.88;;;;;;;;;;4937223;29;20106;-79
2022/04/23 12:02:57;;;;;;;5.50;2.80;;;;;;;;;;4940062;29;20016;-82
2022/04/23 12:05:24;;;;;;;4.53;2.60;;;;;;;;;;4925722;29;20038;-81
2022/04/23 12:07:49;;;;;;;7.22;3.08;;;;;;;;;;4933192;29;20022;-83
2022/04/23 12:10:14;;;;;;;7.70;2.50;;;;;;;;;;4940370;29;20011;-82
2022/04/23 12:12:40;;;;;;;5.40;2.50;;;;;;;;;;4939986;29;20270;-82
2022/04/23 12:15:09;;;;;;;5.75;3.05;;;;;;;;;;4940955;29;20090;-82
2022/04/23 12:17:45;;;;;;;7.40;3.20;;;;;;;;;;4939989;29;20435;-83
2022/04/23 12:20:12;;;;;;;5.72;3.05;;;;;;;;;;4922828;29;20083;-83
2022/04/23 12:22:37;;;;;;;5.80;2.95;;;;;;;;;;4920364;29;20059;-83
2022/04/23 12:25:10;;;;;;;3.90;2.00;;;;;;;;;;4937817;29;20443;-83
2022/04/23 12:27:54;;;;;;;9.88;4.03;;;;;;;;;;4936977;29;20030;-81
2022/04/23 12:41:32;;;;;;;8.00;2.58;;;;;;;;;;4930658;29;19977;-81
2022/04/23 12:44:16;;;;;;;4.00;1.87;;;;;;;;;;4919799;29;20055;-82
2022/04/23 12:46:54;;;;;;;4.78;2.17;;;;;;;;;;4936184;29;20277;-83
2022/04/23 12:49:22;;;;;;;8.90;2.40;;;;;;;;;;4920484;29;20549;-83
2022/04/23 12:51:51;;;;;;;7.53;2.75;;;;;;;;;;4939141;29;20019;-83
2022/04/23 12:54:16;;;;;;;5.50;2.25;;;;;;;;;;4932873;29;20039;-82
2022/04/23 12:56:41;;;;;;;4.73;1.90;;;;;;;;;;4943673;29;20024;-83
2022/04/23 12:59:07;;;;;;;7.63;3.50;;;;;;;;;;4941136;29;20262;-82
2022/04/23 13:01:32;;;;;;;3.42;2.17;;;;;;;;;;4937535;29;20024;-83
2022/04/23 13:03:59;;;;;;;4.40;2.00;;;;;;;;;;4936891;29;20020;-80
2022/04/23 13:09:09;;;;;;;3.25;1.80;;;;;;;;;;4936524;29;20079;-80
2022/04/23 13:11:34;;;;;;;5.43;2.45;;;;;;;;;;4938173;29;20012;-81
2022/04/23 13:14:00;;;;;;;3.08;1.92;;;;;;;;;;4934697;29;20059;-80
2022/04/23 13:16:29;;;;;;;5.53;1.85;;;;;;;;;;4936068;29;20071;-81
2022/04/23 13:18:55;;;;;;;4.70;2.28;;;;;;;;;;4936270;29;20095;-80
2022/04/23 13:21:21;;;;;;;4.32;2.38;;;;;;;;;;4935890;29;20037;-81
2022/04/23 13:23:46;;;;;;;3.92;1.83;;;;;;;;;;4922905;29;20035;-82
2022/04/23 13:26:13;;;;;;;3.85;2.22;;;;;;;;;;4918800;29;20119;-81
2022/04/23 13:28:39;;;;;;;3.88;2.30;;;;;;;;;;4935536;29;20023;-80
2022/04/23 13:31:05;;;;;;;4.00;2.30;;;;;;;;;;4918646;29;20074;-80
2022/04/23 13:33:30;;;;;;;2.95;1.73;;;;;;;;;;4930871;29;20420;-80
2022/04/23 13:35:55;;;;;;;4.70;2.20;;;;;;;;;;4936244;29;20024;-80
2022/04/23 13:38:21;;;;;;;3.47;1.90;;;;;;;;;;4936318;29;20024;-80
2022/04/23 13:40:48;;;;;;;5.65;2.05;;;;;;;;;;4935681;29;20261;-81
2022/04/23 13:43:13;;;;;;;4.60;2.28;;;;;;;;;;4936797;29;20023;-80
2022/04/23 13:45:39;;;;;;;4.40;2.20;;;;;;;;;;4920370;29;20031;-81
2022/04/23 13:48:05;;;;;;;5.05;2.40;;;;;;;;;;4922614;29;20079;-80
2022/04/23 13:50:32;;;;;;;3.97;2.08;;;;;;;;;;4935480;29;20530;-81
2022/04/23 13:52:57;;;;;;;3.03;1.95;;;;;;;;;;4934720;29;20028;-80
2022/04/23 13:55:22;;;;;;;3.83;2.30;;;;;;;;;;4934273;29;20016;-81
2022/04/23 13:57:48;;;;;;;7.00;4.13;;;;;;;;;;4935389;29;20046;-81
2022/04/23 14:00:13;;;;;;;6.20;3.33;;;;;;;;;;4934717;29;20028;-82
2022/04/23 14:10:50;;;;;;;5.00;2.40;;;;;;;;;;4933944;29;20072;-80
2022/04/23 14:13:15;;;;;;;5.03;2.28;;;;;;;;;;4933890;29;20020;-82
2022/04/23 14:15:40;;;;;;;4.07;1.97;;;;;;;;;;4933608;29;20062;-80
2022/04/23 14:18:07;;;;;;;4.50;2.60;;;;;;;;;;4932380;29;20075;-79
2022/04/23 14:20:33;;;;;;;5.68;2.65;;;;;;;;;;4933804;29;20044;-80
2022/04/23 14:23:01;;;;;;;6.40;2.40;;;;;;;;;;4916597;29;20019;-81
2022/04/23 14:25:26;;;;;;;4.45;2.33;;;;;;;;;;4937741;29;20468;-81
2022/04/23 14:27:51;;;;;;;4.60;2.55;;;;;;;;;;4937346;29;20038;-81
2022/04/23 14:30:17;;;;;;;3.77;2.33;;;;;;;;;;4937686;29;20441;-80
2022/04/23 14:32:42;;;;;;;3.83;2.30;;;;;;;;;;4919520;29;20617;-80
2022/04/23 14:35:08;;;;;;;3.93;2.23;;;;;;;;;;4935754;29;20270;-80
2022/04/23 14:37:33;;;;;;;2.90;1.85;;;;;;;;;;4936772;29;20020;-81
2022/04/23 14:39:58;;;;;;;6.72;2.50;;;;;;;;;;4936743;29;20446;-81
2022/04/23 14:42:24;;;;;;;5.37;2.03;;;;;;;;;;4937648;29;20086;-81
2022/04/23 14:44:49;;;;;;;4.22;2.55;;;;;;;;;;4919182;29;20474;-80
2022/04/23 14:47:14;;;;;;;6.07;2.30;;;;;;;;;;4919183;29;20067;-80
2022/04/23 14:49:39;;;;;;;4.23;2.40;;;;;;;;;;4935910;29;20057;-81
2022/04/23 14:54:48;;;;;;;3.88;2.08;;;;;;;;;;4946225;23;20058;-86
2022/04/23 14:57:13;;;;;;;3.67;2.10;;;;;;;;;;4919073;29;20016;-85
2022/04/23 14:59:39;;;;;;;5.97;2.23;;;;;;;;;;4919362;29;20427;-85
2022/04/23 15:02:04;;;;;;;5.13;2.33;;;;;;;;;;4919597;29;20043;-86
2022/04/23 15:04:29;;;;;;;5.97;2.30;;;;;;;;;;4936340;29;20274;-85
2022/04/23 15:06:55;;;;;;;3.63;2.35;;;;;;;;;;4935298;29;20932;-84
2022/04/23 15:09:20;;;;;;;3.58;2.20;;;;;;;;;;4936167;29;20547;-85
2022/04/23 15:11:46;;;;;;;4.07;2.10;;;;;;;;;;4936668;29;20019;-84
2022/04/23 15:14:11;;;;;;;3.42;2.03;;;;;;;;;;4935372;29;20269;-85
2022/04/23 15:16:36;;;;;;;3.92;2.53;;;;;;;;;;4936789;29;20075;-85
2022/04/23 15:19:02;;;;;;;7.40;2.50;;;;;;;;;;4935245;29;20506;-85
2022/04/23 15:21:27;;;;;;;4.65;2.15;;;;;;;;;;4921095;29;20098;-85
2022/04/23 15:23:52;;;;;;;5.07;2.10;;;;;;;;;;4917435;29;20019;-84
2022/04/23 15:26:18;;;;;;;3.95;2.20;;;;;;;;;;4935766;29;20506;-85